• Join FlightAware (Why Join?)
  • Login
  • US Flag 
11:58AM EST


 

Airport Tracker/Info


-or-


 

Live Flight TrackerFlight Track Log ✈ VP-BLX ✈ 16-Apr-2014 ✈ MDPC / PUJ - UUEE / SVO

Flight Track Log - Related Links

Times and Time Zones

All times are in EDT time to prevent confusion due to time zone crossing. See the VP-BLX flight status page for this flight to view local times or setup timezone preferences in your user account.

Time Position Orientation Groundspeed Altitude Reporting Facility
EDT Latitude Longitude Course Direction KTS MPH feet Rate Location/Type
10:34AM 18.6329 -68.3876 341° North  Level FlightAware Approximate
10:35AM 18.6991 -68.4108 342° North  Level FlightAware Approximate
10:36AM 18.7653 -68.4329 342° North  Level FlightAware Approximate
10:36AM 18.6333 -68.3333 343° North 210 242 2,400  Level San Juan Center
10:37AM 18.8303 -68.4588 339° North  Level FlightAware Approximate
10:37AM 18.7000 -68.3667 335° Northwest 250 288 4,000  Level San Juan Center
10:38AM 18.8971 -68.4784 347° North  Level FlightAware Approximate
10:38AM 18.7667 -68.3833 347° North 260 299 4,700  Level San Juan Center
10:39AM 18.9652 -68.4930 349° North  Level FlightAware Approximate
10:39AM 18.8333 -68.4167 335° Northwest 270 311 7,300  Level San Juan Center
10:40AM 19.0334 -68.5067 349° North  Level FlightAware Approximate
10:40AM 18.9167 -68.4500 339° North 280 322 9,900  Level San Juan Center
10:41AM 19.1011 -68.5226 343° North  Level FlightAware Approximate
10:41AM 19.0000 -68.4667 349° North 300 345 11,200  Level San Juan Center
10:42AM 19.1674 -68.5446 343° North  Level FlightAware Approximate
10:42AM 19.0833 -68.5000 339° North 330 380 13,300  Level San Juan Center
10:43AM 19.1833 -68.5333 343° North 350 403 15,300 2,182 Climbing San Juan Center
10:44AM 19.2833 -68.5833 335° Northwest 370 426 17,700 1,850 Climbing San Juan Center
10:45AM 19.3833 -68.5500 17° North 400 460 19,000 1,488 Climbing San Juan Center
10:46AM 19.4500 -68.4500 55° Northeast 400 460 20,700 1,736 Climbing San Juan Center
10:47AM 19.5167 -68.3667 50° Northeast 390 449 22,500 1,650 Climbing San Juan Center
10:48AM 19.6000 -68.2833 43° Northeast 400 460 24,000 1,190 Climbing San Juan Center
10:49AM 19.6833 -68.1833 48° Northeast 410 472 24,900 1,289 Climbing San Juan Center
10:50AM 19.7500 -68.1000 50° Northeast 420 483 26,600 1,300 Climbing San Juan Center
10:51AM 19.8333 -68.0000 48° Northeast 430 495 27,500 1,000 Climbing San Juan Center
10:52AM 19.9167 -67.9000 48° Northeast 430 495 28,600 1,041 Climbing San Juan Center
10:53AM 20.0000 -67.8000 48° Northeast 440 506 29,600 893 Climbing San Juan Center
10:54AM 20.0833 -67.7000 48° Northeast 450 518 30,400 800 Climbing San Juan Center
10:55AM 20.1667 -67.6000 48° Northeast 450 518 31,200 900 Climbing San Juan Center
10:56AM 20.2500 -67.5000 48° Northeast 470 541 32,200 1,041 Climbing San Juan Center
10:57AM 20.3500 -67.4000 43° Northeast 470 541 33,300 893 Climbing San Juan Center
10:58AM 20.4333 -67.2833 53° Northeast 470 541 34,000 350 Climbing San Juan Center
10:59AM 20.5167 -67.1833 48° Northeast 470 541 34,000  Level San Juan Center
11:00AM 20.6000 -67.0833 48° Northeast 470 541 34,000  Level San Juan Center
11:01AM 20.7000 -66.9667 47° Northeast 480 552 34,000  Level San Juan Center
11:02AM 20.7833 -66.8667 48° Northeast 480 552 34,000  Level San Juan Center
11:03AM 20.8667 -66.7667 48° Northeast 470 541 34,000  Level San Juan Center
11:04AM 20.9500 -66.6500 53° Northeast 470 541 34,000  Level San Juan Center
11:05AM 21.0500 -66.5333 47° Northeast 480 552 34,000  Level San Juan Center
11:06AM 21.1333 -66.4333 48° Northeast 480 552 34,000  Level San Juan Center
11:07AM 21.2167 -66.3333 48° Northeast 470 541 34,000  Level San Juan Center
11:08AM 21.3167 -66.2000 51° Northeast 480 552 34,000  Level San Juan Center
11:09AM 21.4167 -66.1333 32° Northeast 460 529 34,000  Level San Juan Center
11:10AM 21.5167 -66.0667 32° Northeast 460 529 34,000  Level San Juan Center
11:11AM 21.6667 -66.0167 17° North 440 506 34,000  Level San Juan Center
11:12AM 21.7833 -66.0167 360° North 440 506 34,000  Level San Juan Center
11:15AM 22.0500 -66.0333 North 444 511 34,000  Level New York Oceanic (ODAPS)
11:15AM 22.1167 -66.0333 North 440 506 34,000  Level New York Oceanic (ODAPS)
11:25AM 23.3000 -65.9333 North 440 506 34,000  Level New York Oceanic (ODAPS)
11:34AM 24.4500 -65.8333 North 432 497 34,000  Level New York Oceanic (ODAPS)
11:38AM 24.9333 -65.7833 North 441 507 34,000  Level New York Oceanic (ODAPS)
11:44AM 25.6000 -65.7333 North 440 506 34,000  Level New York Oceanic (ODAPS)
11:53AM 26.7667 -65.6500 North 433 498 34,000  Level New York Oceanic (ODAPS)
12:06PM 27.9167 -65.5500 North 428 493 34,000  Level New York Oceanic (ODAPS)
12:13PM 29.0803 -65.4525 North 434 499 34,000  Level New York Center
12:14PM 29.2172 -65.4444 North 440 506 34,000  Level New York Center
12:15PM 29.3389 -65.4233 North 440 506 34,000  Level New York Center
12:16PM 29.4528 -65.4167 North 440 506 34,000  Level New York Center
12:17PM 29.5889 -65.3897 10° North 446 513 34,000  Level New York Center
12:18PM 29.7047 -65.3303 24° Northeast 446 513 34,000  Level New York Center
12:19PM 29.8083 -65.2814 22° Northeast 455 524 34,000  Level New York Center
12:20PM 29.9344 -65.2164 24° Northeast 455 524 34,000  Level New York Center
12:21PM 30.0358 -65.1622 25° Northeast 450 518 34,000  Level New York Center
12:22PM 30.1594 -65.0947 25° Northeast 445 512 34,000  Level New York Center
12:23PM 30.2772 -65.0369 23° Northeast 451 519 34,000  Level New York Center
12:24PM 30.3783 -64.9753 28° Northeast 451 519 34,000  Level New York Center
12:25PM 30.5042 -64.9119 23° Northeast 457 526 34,000  Level New York Center
12:26PM 30.6178 -64.8517 25° Northeast 449 517 34,000  Level New York Center
12:27PM 30.7217 -64.8061 21° North 439 505 34,000  Level New York Center
12:28PM 30.8433 -64.7400 25° Northeast 444 511 34,000  Level New York Center
12:29PM 30.9464 -64.6822 26° Northeast 450 518 34,000  Level New York Center
12:35PM 31.6009 -64.3297 24° Northeast 444 511 34,000  Level FlightAware ADS-B
12:38PM 31.9125 -64.1616 24° Northeast 445 512 34,000  Level FlightAware ADS-B
12:39PM 32.0794 -64.0694 24° Northeast 443 510 34,000  Level New York Center
12:40PM 32.1828 -64.0147 24° Northeast 448 516 34,000  Level New York Center
12:41PM 32.3058 -63.9461 25° Northeast 448 516 34,000  Level New York Center
12:42PM 32.4192 -63.8856 24° Northeast 448 516 34,000  Level New York Center
12:43PM 32.5158 -63.8311 25° Northeast 448 516 34,000  Level New York Center
12:44PM 32.6433 -63.7639 24° Northeast 448 516 34,000  Level New York Center
12:45PM 32.7442 -63.7064 26° Northeast 448 516 34,000  Level New York Center
12:46PM 32.8692 -63.6367 25° Northeast 448 516 34,000  Level New York Center
12:47PM 32.9819 -63.5728 25° Northeast 448 516 34,000  Level New York Center
12:48PM 33.0828 -63.5169 25° Northeast 443 510 34,000  Level New York Center
12:49PM 33.2100 -63.4489 24° Northeast 448 516 34,000  Level New York Center
12:50PM 33.3228 -63.3844 26° Northeast 448 516 34,000  Level New York Center
12:51PM 33.4256 -63.3281 25° Northeast 448 516 34,000  Level New York Center
12:52PM 33.5503 -63.2547 26° Northeast 451 519 34,000  Level New York Center
12:53PM 33.6528 -63.1981 25° Northeast 446 513 34,000  Level New York Center
12:54PM 33.7731 -63.1219 28° Northeast 446 513 34,000  Level New York Center
12:55PM 33.8903 -63.0636 22° Northeast 452 520 34,000  Level New York Center
12:56PM 33.9908 -63.0042 26° Northeast 447 514 34,000  Level New York Center
12:57PM 34.1197 -62.9367 23° Northeast 445 512 34,000  Level New York Center
12:58PM 34.2297 -62.8658 28° Northeast 444 511 34,000  Level New York Center
12:59PM 34.3325 -62.8133 23° Northeast 449 517 34,000  Level New York Center
01:00PM 34.4544 -62.7333 28° Northeast 449 517 34,000  Level New York Center
01:01PM 34.5694 -62.6764 22° Northeast 443 510 34,000  Level New York Center
01:02PM 34.6739 -62.6181 25° Northeast 453 521 34,000  Level New York Center
01:23PM 37.0833 -61.1500 26° Northeast 456 525 34,000  Level New York Oceanic (ODAPS)
01:29PM 37.8333 -60.7000 27° Northeast 460 529 34,000  Level New York Oceanic (ODAPS)
01:35PM 38.5000 -60.2667 21° North 463 533 34,000  Level New York Oceanic (ODAPS)
01:39PM 38.9500 -60.0500 21° North 464 534 34,000  Level New York Oceanic (ODAPS)
01:49PM 40.1167 -59.4667 22° Northeast 462 532 34,000  Level New York Oceanic (ODAPS)
01:50PM 40.2482 -59.3928 22° Northeast 464 534 34,000  Level FlightAware Transoceanic
01:51PM 40.3660 -59.3318 22° Northeast 464 534 34,000  Level FlightAware Transoceanic
01:58PM 41.2833 -58.8500 22° Northeast 467 537 34,000  Level New York Oceanic (ODAPS)
02:08PM 42.4500 -58.2167 23° Northeast 463 533 34,000  Level New York Oceanic (ODAPS)
02:18PM 43.7167 -57.7167 North 480 552 34,000  Level Moncton Center
02:19PM 43.9299 -57.7063 North 463 533 34,000 -500 Level FlightAware Transoceanic
02:19PM 43.8500 -57.7000 North 490 564 33,500  Descending Moncton Center
02:20PM 44.0738 -57.6791 North 463 533 34,000 -500 Climbing FlightAware Transoceanic
02:20PM 43.9833 -57.6500 15° North 490 564 33,000  Descending Moncton Center
02:21PM 44.2176 -57.6518 North 463 533 34,000  Climbing FlightAware Transoceanic
02:21PM 44.1167 -57.6333 North 480 552 33,000 -278 Descending Moncton Center
02:24PM 44.5500 -57.5667 North 500 575 33,000  Level Gander Center
02:25PM 44.6667 -57.5333 11° North 490 564 33,000  Level Moncton Center
02:26PM 44.8000 -57.5167 North 490 564 33,000  Level Moncton Center
02:27PM 44.9167 -57.4667 17° North 490 564 33,000  Level Moncton Center
02:28PM 45.0667 -57.4500 North 500 575 33,000  Level Moncton Center
02:29PM 45.2000 -57.4333 North 500 575 33,000  Level Moncton Center
02:30PM 45.1041 -57.4738 North  Level FlightAware Approximate
02:30PM 45.3333 -57.4000 10° North 500 575 33,000  Level Moncton Center
02:31PM 45.4667 -57.3833 North 500 575 33,000  Level Moncton Center
02:32PM 45.6167 -57.3333 13° North 500 575 33,000  Level Moncton Center
02:33PM 45.7500 -57.3000 10° North 490 564 33,000  Level Moncton Center
02:34PM 45.8833 -57.2333 19° North 500 575 33,000  Level Moncton Center
02:35PM 46.0167 -57.1667 19° North 500 575 33,000  Level Moncton Center
02:36PM 46.1333 -57.1000 22° Northeast 500 575 33,000  Level Moncton Center
02:37PM 46.2667 -57.0000 27° Northeast 510 587 33,000  Level Moncton Center
02:38PM 46.4000 -56.9333 19° North 500 575 33,000  Level Moncton Center
02:39PM 46.5333 -56.8667 19° North 500 575 33,000  Level Moncton Center
02:40PM 46.6667 -56.7833 23° Northeast 510 587 33,000  Level Moncton Center
02:41PM 46.8000 -56.7167 19° North 510 587 33,000  Level Moncton Center
02:42PM 46.9333 -56.6500 19° North 510 587 33,000  Level Moncton Center
02:43PM 47.0667 -56.5833 19° North 510 587 33,000  Level Moncton Center
02:44PM 47.1833 -56.5000 26° Northeast 510 587 33,000  Level Moncton Center
02:45PM 47.3333 -56.4167 21° North 510 587 33,000  Level Moncton Center
02:46PM 47.4667 -56.3333 23° Northeast 510 587 33,000  Level Moncton Center
02:47PM 47.6000 -56.2667 19° North 520 598 33,000  Level Moncton Center
02:48PM 47.7167 -56.2000 21° North 500 575 33,000  Level Moncton Center
02:49PM 47.8500 -56.1333 19° North 520 598 33,000  Level Moncton Center
02:50PM 48.0000 -56.0333 24° Northeast 510 587 33,000  Level Moncton Center
02:51PM 48.1333 -55.9667 18° North 510 587 33,000  Level Moncton Center
02:52PM 48.2500 -55.8833 25° Northeast 510 587 33,000  Level Moncton Center
02:53PM 48.3833 -55.8167 18° North 510 587 33,000 298 Level Moncton Center
02:54PM 48.5333 -55.7167 24° Northeast 500 575 33,600 650 Climbing Moncton Center
02:55PM 48.6500 -55.6333 25° Northeast 500 575 34,300 700 Climbing Moncton Center
02:56PM 48.7833 -55.5667 18° North 510 587 35,000 350 Climbing Moncton Center
02:57PM 48.9167 -55.5000 18° North 520 598 35,000  Level Moncton Center
02:58PM 49.0333 -55.3667 37° Northeast 520 598 35,000  Level Moncton Center
02:59PM 49.1667 -55.2500 30° Northeast 510 587 35,000  Level Moncton Center
03:00PM 49.2667 -55.1000 44° Northeast 520 598 35,000  Level Moncton Center
03:00PM 49.3333 -55.0167 39° Northeast 520 598 35,000  Level Gander Center
03:01PM 49.4000 -54.9333 39° Northeast 520 598 35,000  Level Gander Center
03:02PM 49.5167 -54.7833 40° Northeast 520 598 35,000  Level Gander Center
03:03PM 49.6333 -54.6500 36° Northeast 520 598 35,000  Level Gander Center
03:04PM 49.7333 -54.5000 44° Northeast 520 598 35,000  Level Gander Center
03:05PM 49.8500 -54.3500 40° Northeast 520 598 35,000  Level Gander Center
03:06PM 49.9667 -54.2000 40° Northeast 520 598 35,000  Level Gander Center
03:07PM 50.0833 -54.0500 39° Northeast 520 598 35,000  Level Gander Center
03:08PM 50.1833 -53.9333 37° Northeast 520 598 35,000 200 Level Gander Center
03:09PM 50.3000 -53.7833 39° Northeast 520 598 35,400 500 Climbing Gander Center
03:10PM 50.4000 -53.6333 44° Northeast 520 598 36,000 686 Climbing Gander Center
03:11PM 50.4833 -53.5333 37° Northeast 520 598 36,600 571 Climbing Moncton Center
03:12PM 50.6000 -53.3667 42° Northeast 520 598 37,000 200 Climbing Moncton Center
03:13PM 50.7000 -53.2167 44° Northeast 520 598 37,000  Level Moncton Center
03:14PM 50.8333 -53.0833 32° Northeast 520 598 37,000  Level Moncton Center
03:14PM 50.8833 -53.0000 46° Northeast 520 598 37,000  Level Gander Center
03:15PM 50.9500 -52.9000 43° Northeast 520 598 37,000  Level Gander Center
03:16PM 51.0333 -52.7833 41° Northeast 510 587 37,000  Level Moncton Center
03:17PM 51.1333 -52.6333 43° Northeast 510 587 37,000  Level Moncton Center
03:18PM 51.2500 -52.4833 39° Northeast 510 587 37,000  Level Moncton Center
03:19PM 51.3667 -52.3333 39° Northeast 510 587 37,000  Level Moncton Center
03:20PM 51.4667 -52.2000 40° Northeast 510 587 37,000  Level Moncton Center
03:21PM 51.5667 -52.0333 46° Northeast 510 587 37,000  Level Moncton Center
03:21PM 51.6333 -51.9500 38° Northeast 510 587 37,000  Level Gander Center
03:22PM 51.7333 -51.8167 40° Northeast 510 587 37,000  Level Gander Center
03:23PM 51.8333 -51.6500 46° Northeast 510 587 37,000  Level Gander Center
03:24PM 51.9500 -51.5000 38° Northeast 510 587 37,000  Level Gander Center
03:25PM 52.0500 -51.3667 39° Northeast 510 587 37,000  Level Gander Center
03:26PM 52.1667 -51.1667 46° Northeast 510 587 37,000  Level Gander Center
03:27PM 52.2667 -51.0333 39° Northeast 510 587 37,000  Level Gander Center
03:28PM 52.3500 -50.8833 48° Northeast 520 598 37,000  Level Gander Center
03:29PM 52.4667 -50.7167 41° Northeast 510 587 37,000  Level Gander Center
03:30PM 52.5667 -50.5500 45° Northeast 500 575 37,000  Level Gander Center
03:31PM 52.6833 -50.3833 41° Northeast 530 610 37,000  Level Gander Center
03:32PM 52.7667 -50.2500 44° Northeast 520 598 37,000  Level Gander Center
03:33PM 52.8667 -50.1167 39° Northeast 510 587 37,000  Level Gander Center
03:34PM 53.0000 -49.9167 42° Northeast 510 587 37,000  Level Gander Center
03:35PM 53.0833 -49.7833 44° Northeast 520 598 37,000  Level Gander Center
03:37PM 53.2311 -49.6063 36° Northeast  Level FlightAware Approximate
03:44PM 53.9510 -48.6660 40° Northeast  Level FlightAware Approximate
03:45PM 54.0503 -48.5233 40° Northeast  Level FlightAware Approximate
03:46PM 54.1494 -48.3798 40° Northeast  Level FlightAware Approximate
03:47PM 54.2483 -48.2357 40° Northeast  Level FlightAware Approximate
03:48PM 54.3473 -48.0913 40° Northeast  Level FlightAware Approximate
03:49PM 54.4460 -47.9461 41° Northeast  Level FlightAware Approximate
03:50PM 54.5446 -47.8002 41° Northeast  Level FlightAware Approximate
03:51PM 54.6429 -47.6536 41° Northeast  Level FlightAware Approximate
03:52PM 54.7412 -47.5063 41° Northeast  Level FlightAware Approximate
03:53PM 54.8392 -47.3583 41° Northeast  Level FlightAware Approximate
03:54PM 54.9374 -47.2103 41° Northeast  Level FlightAware Approximate
03:55PM 55.0355 -47.0617 41° Northeast  Level FlightAware Approximate
03:56PM 55.1335 -46.9125 41° Northeast  Level FlightAware Approximate
03:57PM 55.2313 -46.7625 41° Northeast  Level FlightAware Approximate
03:58PM 55.3288 -46.6118 41° Northeast  Level FlightAware Approximate
03:59PM 55.4263 -46.4603 41° Northeast  Level FlightAware Approximate
04:00PM 55.5235 -46.3081 42° Northeast  Level FlightAware Approximate
04:01PM 55.6205 -46.1552 42° Northeast  Level FlightAware Approximate
04:02PM 55.7173 -46.0014 42° Northeast  Level FlightAware Approximate
04:03PM 55.8140 -45.8470 42° Northeast  Level FlightAware Approximate
04:04PM 55.9104 -45.6917 42° Northeast  Level FlightAware Approximate
04:05PM 56.0067 -45.5357 42° Northeast  Level FlightAware Approximate
04:06PM 56.1027 -45.3788 44° Northeast  Level FlightAware Approximate
04:07PM 56.1968 -45.2178 44° Northeast  Level FlightAware Approximate
04:08PM 56.2906 -45.0561 44° Northeast  Level FlightAware Approximate
04:09PM 56.3843 -44.8935 44° Northeast  Level FlightAware Approximate
04:10PM 56.4778 -44.7301 44° Northeast  Level FlightAware Approximate
04:11PM 56.5710 -44.5660 44° Northeast  Level FlightAware Approximate
04:12PM 56.6641 -44.4010 44° Northeast  Level FlightAware Approximate
04:13PM 56.7589 -44.2391 43° Northeast  Level FlightAware Approximate
04:14PM 56.8541 -44.0775 43° Northeast  Level FlightAware Approximate
04:15PM 56.9490 -43.9150 43° Northeast  Level FlightAware Approximate
04:16PM 57.0438 -43.7516 43° Northeast  Level FlightAware Approximate
04:17PM 57.1383 -43.5875 43° Northeast  Level FlightAware Approximate
04:18PM 57.2328 -43.4222 43° Northeast  Level FlightAware Approximate
04:19PM 57.3265 -43.2550 44° Northeast  Level FlightAware Approximate
04:20PM 57.4192 -43.0856 44° Northeast  Level FlightAware Approximate
04:21PM 57.5117 -42.9154 45° Northeast  Level FlightAware Approximate
04:22PM 57.6040 -42.7443 45° Northeast  Level FlightAware Approximate
04:23PM 57.6960 -42.5723 45° Northeast  Level FlightAware Approximate
04:24PM 57.7879 -42.3994 45° Northeast  Level FlightAware Approximate
04:25PM 57.8795 -42.2258 45° Northeast  Level FlightAware Approximate
04:26PM 57.9711 -42.0517 45° Northeast  Level FlightAware Approximate
04:27PM 58.0625 -41.8768 45° Northeast  Level FlightAware Approximate
04:28PM 58.1537 -41.7009 45° Northeast  Level FlightAware Approximate
04:29PM 58.2446 -41.5242 46° Northeast  Level FlightAware Approximate
04:30PM 58.3353 -41.3465 46° Northeast  Level FlightAware Approximate
04:31PM 58.4257 -41.1679 46° Northeast  Level FlightAware Approximate
04:32PM 58.5159 -40.9884 46° Northeast  Level FlightAware Approximate
04:33PM 58.6059 -40.8080 46° Northeast  Level FlightAware Approximate
04:34PM 58.6955 -40.6267 46° Northeast  Level FlightAware Approximate
04:35PM 58.7850 -40.4444 47° Northeast  Level FlightAware Approximate
04:36PM 58.8741 -40.2612 47° Northeast  Level FlightAware Approximate
04:37PM 58.9630 -40.0770 47° Northeast  Level FlightAware Approximate
04:38PM 59.0439 -39.8798 55° Northeast  Level FlightAware Approximate
04:39PM 59.1190 -39.6729 55° Northeast  Level FlightAware Approximate
04:40PM 59.1938 -39.4651 55° Northeast  Level FlightAware Approximate
04:41PM 59.2683 -39.2563 55° Northeast  Level FlightAware Approximate
04:42PM 59.3424 -39.0467 55° Northeast  Level FlightAware Approximate
04:43PM 59.4161 -38.8362 55° Northeast  Level FlightAware Approximate
04:44PM 59.4896 -38.6247 56° Northeast  Level FlightAware Approximate
04:45PM 59.5626 -38.4123 56° Northeast  Level FlightAware Approximate
04:46PM 59.6354 -38.1990 56° Northeast  Level FlightAware Approximate
04:47PM 59.7078 -37.9848 56° Northeast  Level FlightAware Approximate
04:48PM 59.7798 -37.7696 56° Northeast  Level FlightAware Approximate
04:49PM 59.8515 -37.5536 56° Northeast  Level FlightAware Approximate
04:50PM 59.9228 -37.3365 57° Northeast  Level FlightAware Approximate
04:51PM 59.9938 -37.1186 57° Northeast  Level FlightAware Approximate
04:52PM 60.0644 -36.8997 57° Northeast  Level FlightAware Approximate
04:53PM 60.1347 -36.6799 57° Northeast  Level FlightAware Approximate
04:54PM 60.2046 -36.4591 57° Northeast  Level FlightAware Approximate
04:55PM 60.2741 -36.2374 58° Northeast  Level FlightAware Approximate
04:56PM 60.3432 -36.0148 58° Northeast  Level FlightAware Approximate
04:57PM 60.4120 -35.7912 58° Northeast  Level FlightAware Approximate
04:58PM 60.4804 -35.5667 58° Northeast  Level FlightAware Approximate
04:59PM 60.5484 -35.3412 58° Northeast  Level FlightAware Approximate
05:00PM 60.6160 -35.1148 59° Northeast  Level FlightAware Approximate
05:01PM 60.6833 -34.8874 59° Northeast  Level FlightAware Approximate
05:02PM 60.7501 -34.6591 59° Northeast  Level FlightAware Approximate
05:03PM 60.8166 -34.4299 59° Northeast  Level FlightAware Approximate
05:04PM 60.8827 -34.1996 59° Northeast  Level FlightAware Approximate
05:05PM 60.9484 -33.9685 60° Northeast  Level FlightAware Approximate
05:06PM 61.0137 -33.7363 60° Northeast  Level FlightAware Approximate
05:07PM 61.0786 -33.5033 60° Northeast  Level FlightAware Approximate
05:08PM 61.1431 -33.2692 60° Northeast  Level FlightAware Approximate
05:09PM 61.2071 -33.0342 60° Northeast  Level FlightAware Approximate
05:10PM 61.2708 -32.7983 61° Northeast  Level FlightAware Approximate
05:11PM 61.3341 -32.5614 61° Northeast  Level FlightAware Approximate
05:12PM 61.3969 -32.3235 61° Northeast  Level FlightAware Approximate
05:13PM 61.4594 -32.0847 61° Northeast  Level FlightAware Approximate
05:14PM 61.5214 -31.8449 61° Northeast  Level FlightAware Approximate
05:15PM 61.5843 -31.6058 60° Northeast  Level FlightAware Approximate
05:16PM 61.6480 -31.3670 61° Northeast  Level FlightAware Approximate
05:17PM 61.7113 -31.1273 61° Northeast  Level FlightAware Approximate
05:18PM 61.7742 -30.8866 61° Northeast  Level FlightAware Approximate
05:19PM 61.8367 -30.6449 61° Northeast  Level FlightAware Approximate
05:20PM 61.8987 -30.4022 61° Northeast  Level FlightAware Approximate
05:21PM 61.9603 -30.1585 62° Northeast  Level FlightAware Approximate
05:22PM 62.0131 -29.9065 73° East  Level FlightAware Approximate
05:23PM 62.0499 -29.6403 73° East  Level FlightAware Approximate
05:24PM 62.0862 -29.3735 74° East  Level FlightAware Approximate
05:25PM 62.1219 -29.1060 74° East  Level FlightAware Approximate
05:26PM 62.1572 -28.8379 74° East  Level FlightAware Approximate
05:27PM 62.1920 -28.5691 74° East  Level FlightAware Approximate
05:28PM 62.2262 -28.2998 75° East  Level FlightAware Approximate
05:29PM 62.2599 -28.0298 75° East  Level FlightAware Approximate
05:30PM 62.2931 -27.7593 75° East  Level FlightAware Approximate
05:31PM 62.3257 -27.4881 75° East  Level FlightAware Approximate
05:32PM 62.3578 -27.2164 76° East  Level FlightAware Approximate
05:33PM 62.3894 -26.9441 76° East  Level FlightAware Approximate
05:34PM 62.4205 -26.6712 76° East  Level FlightAware Approximate
05:35PM 62.4510 -26.3977 76° East  Level FlightAware Approximate
05:36PM 62.4810 -26.1237 77° East  Level FlightAware Approximate
05:37PM 62.5104 -25.8492 77° East  Level FlightAware Approximate
05:38PM 62.5393 -25.5741 77° East  Level FlightAware Approximate
05:39PM 62.5677 -25.2985 77° East  Level FlightAware Approximate
05:40PM 62.5955 -25.0224 78° East  Level FlightAware Approximate
05:41PM 62.6228 -24.7457 78° East  Level FlightAware Approximate
05:42PM 62.6495 -24.4686 78° East  Level FlightAware Approximate
05:43PM 62.6757 -24.1909 78° East  Level FlightAware Approximate
05:44PM 62.7013 -23.9128 79° East  Level FlightAware Approximate
05:45PM 62.7264 -23.6342 79° East  Level FlightAware Approximate
05:46PM 62.7509 -23.3551 79° East  Level FlightAware Approximate
05:47PM 62.7749 -23.0756 79° East  Level FlightAware Approximate
05:48PM 62.7983 -22.7956 80° East  Level FlightAware Approximate
05:49PM 62.8212 -22.5152 80° East  Level FlightAware Approximate
05:50PM 62.8435 -22.2343 80° East  Level FlightAware Approximate
05:51PM 62.8652 -21.9530 80° East  Level FlightAware Approximate
05:52PM 62.8864 -21.6714 81° East  Level FlightAware Approximate
05:53PM 62.9070 -21.3893 81° East  Level FlightAware Approximate
05:54PM 62.9271 -21.1068 81° East  Level FlightAware Approximate
05:55PM 62.9466 -20.8239 81° East  Level FlightAware Approximate
05:56PM 62.9655 -20.5407 82° East  Level FlightAware Approximate
05:57PM 62.9839 -20.2571 82° East  Level FlightAware Approximate
05:58PM 63.0034 -19.9739 74° East  Level FlightAware Approximate
05:59PM 63.0390 -19.6980 74° East  Level FlightAware Approximate
06:00PM 63.0740 -19.4213 74° East  Level FlightAware Approximate
06:01PM 63.1085 -19.1440 75° East  Level FlightAware Approximate
06:02PM 63.1425 -18.8660 75° East  Level FlightAware Approximate
06:03PM 63.1759 -18.5874 75° East  Level FlightAware Approximate
06:04PM 63.2096 -18.3086 74° East  Level FlightAware Approximate
06:05PM 63.2451 -18.0306 74° East  Level FlightAware Approximate
06:06PM 63.2801 -17.7519 74° East  Level FlightAware Approximate
06:07PM 63.3145 -17.4726 75° East  Level FlightAware Approximate
06:08PM 63.3483 -17.1925 75° East  Level FlightAware Approximate
06:09PM 63.3816 -16.9119 75° East  Level FlightAware Approximate
06:10PM 63.4143 -16.6305 75° East  Level FlightAware Approximate
06:11PM 63.4465 -16.3486 76° East  Level FlightAware Approximate
06:12PM 63.4782 -16.0660 76° East  Level FlightAware Approximate
06:13PM 63.5093 -15.7828 76° East  Level FlightAware Approximate
06:14PM 63.5398 -15.4989 76° East  Level FlightAware Approximate
06:15PM 63.5697 -15.2145 77° East  Level FlightAware Approximate
06:16PM 63.5988 -14.9293 77° East  Level FlightAware Approximate
06:17PM 63.6270 -14.6434 77° East  Level FlightAware Approximate
06:18PM 63.6547 -14.3569 78° East  Level FlightAware Approximate
06:19PM 63.6818 -14.0699 78° East  Level FlightAware Approximate
06:20PM 63.7083 -13.7823 78° East  Level FlightAware Approximate
06:21PM 63.7342 -13.4942 78° East  Level FlightAware Approximate
06:22PM 63.7596 -13.2056 79° East  Level FlightAware Approximate
06:23PM 63.7843 -12.9165 79° East  Level FlightAware Approximate
06:24PM 63.8085 -12.6268 79° East  Level FlightAware Approximate
06:25PM 63.8322 -12.3367 79° East  Level FlightAware Approximate
06:26PM 63.8552 -12.0461 80° East  Level FlightAware Approximate
06:27PM 63.8777 -11.7550 80° East  Level FlightAware Approximate
06:28PM 63.8995 -11.4635 80° East  Level FlightAware Approximate
06:29PM 63.9208 -11.1715 80° East  Level FlightAware Approximate
06:30PM 63.9415 -10.8791 81° East  Level FlightAware Approximate
06:31PM 63.9616 -10.5862 81° East  Level FlightAware Approximate
06:32PM 63.9811 -10.2929 81° East  Level FlightAware Approximate
06:33PM 64.0000 -9.9993 86° East  Level FlightAware Approximate
06:34PM 64.0099 -9.7031 86° East  Level FlightAware Approximate
06:35PM 64.0192 -9.4068 86° East  Level FlightAware Approximate
06:36PM 64.0279 -9.1103 86° East  Level FlightAware Approximate
06:37PM 64.0360 -8.8136 86° East  Level FlightAware Approximate
06:38PM 64.0435 -8.5168 87° East  Level FlightAware Approximate
06:39PM 64.0504 -8.2198 87° East  Level FlightAware Approximate
06:40PM 64.0566 -7.9226 87° East  Level FlightAware Approximate
06:41PM 64.0623 -7.6253 87° East  Level FlightAware Approximate
06:42PM 64.0674 -7.3279 88° East  Level FlightAware Approximate
06:43PM 64.0718 -7.0304 88° East  Level FlightAware Approximate
06:44PM 64.0757 -6.7329 88° East  Level FlightAware Approximate
06:45PM 64.0789 -6.4352 88° East  Level FlightAware Approximate
06:46PM 64.0815 -6.1375 89° East  Level FlightAware Approximate
06:47PM 64.0835 -5.8397 89° East  Level FlightAware Approximate
06:48PM 64.0850 -5.5419 89° East  Level FlightAware Approximate
06:49PM 64.0858 -5.2441 90° East  Level FlightAware Approximate
06:50PM 64.0860 -4.9463 90° East  Level FlightAware Approximate
06:51PM 64.0855 -4.6484 90° East  Level FlightAware Approximate
06:52PM 64.0845 -4.3506 90° East  Level FlightAware Approximate
06:53PM 64.0829 -4.0528 91° East  Level FlightAware Approximate
06:54PM 64.0807 -3.7551 91° East  Level FlightAware Approximate
06:55PM 64.0778 -3.4574 91° East  Level FlightAware Approximate
06:56PM 64.0743 -3.1597 91° East  Level FlightAware Approximate
06:57PM 64.0703 -2.8622 92° East  Level FlightAware Approximate
06:58PM 64.0656 -2.5647 92° East  Level FlightAware Approximate
06:59PM 64.0603 -2.2674 92° East  Level FlightAware Approximate
07:00PM 64.0545 -1.9701 92° East  Level FlightAware Approximate
07:01PM 64.0480 -1.6730 93° East  Level FlightAware Approximate
07:02PM 64.0409 -1.3761 93° East  Level FlightAware Approximate
07:03PM 64.0332 -1.0793 93° East  Level FlightAware Approximate
07:04PM 64.0248 -0.7827 94° East  Level FlightAware Approximate
07:05PM 64.0159 -0.4862 94° East  Level FlightAware Approximate
07:06PM 64.0064 -0.1900 94° East  Level FlightAware Approximate
07:07PM 63.9950 0.1058 96° East  Level FlightAware Approximate
07:08PM 63.9808 0.4008 96° East  Level FlightAware Approximate
07:09PM 63.9660 0.6955 96° East  Level FlightAware Approximate
07:10PM 63.9505 0.9899 97° East  Level FlightAware Approximate
07:11PM 63.9345 1.2840 97° East  Level FlightAware Approximate
07:12PM 63.9179 1.5777 97° East  Level FlightAware Approximate
07:13PM 63.9006 1.8710 97° East  Level FlightAware Approximate
07:14PM 63.8828 2.1640 98° East  Level FlightAware Approximate
07:15PM 63.8644 2.4567 98° East  Level FlightAware Approximate
07:16PM 63.8454 2.7489 98° East  Level FlightAware Approximate
07:17PM 63.8258 3.0407 99° East  Level FlightAware Approximate
07:18PM 63.8056 3.3321 99° East  Level FlightAware Approximate
07:19PM 63.7849 3.6231 99° East  Level FlightAware Approximate
07:20PM 63.7635 3.9137 99° East  Level FlightAware Approximate
07:21PM 63.7416 4.2038 100° East  Level FlightAware Approximate
07:22PM 63.7191 4.4934 100° East  Level FlightAware Approximate
07:23PM 63.6960 4.7826 100° East  Level FlightAware Approximate
07:24PM 63.6723 5.0714 100° East  Level FlightAware Approximate
07:25PM 63.6481 5.3596 101° East  Level FlightAware Approximate
07:26PM 63.6233 5.6473 101° East  Level FlightAware Approximate
07:27PM 63.5979 5.9345 101° East  Level FlightAware Approximate
07:28PM 63.5719 6.2212 101° East  Level FlightAware Approximate
07:29PM 63.5454 6.5074 102° East  Level FlightAware Approximate
07:30PM 63.5182 6.7930 102° East  Level FlightAware Approximate
07:31PM 63.4906 7.0781 102° East  Level FlightAware Approximate
07:32PM 63.4623 7.3627 102° East  Level FlightAware Approximate
07:33PM 63.4335 7.6466 103° East  Level FlightAware Approximate
07:34PM 63.4041 7.9300 103° East  Level FlightAware Approximate
07:35PM 63.3742 8.2128 103° East  Level FlightAware Approximate
07:36PM 63.3451 8.4958 103° East  Level FlightAware Approximate
07:37PM 63.3159 8.7784 103° East  Level FlightAware Approximate
07:38PM 63.2862 9.0604 103° East  Level FlightAware Approximate
07:39PM 63.2559 9.3419 103° East  Level FlightAware Approximate
07:40PM 63.2250 9.6227 104° East  Level FlightAware Approximate
07:41PM 63.1936 9.9029 104° East  Level FlightAware Approximate
07:42PM 63.1617 10.1826 104° East  Level FlightAware Approximate
07:43PM 63.1282 10.4610 105° East  Level FlightAware Approximate
07:44PM 63.0937 10.7385 105° East  Level FlightAware Approximate
07:45PM 63.0586 11.0153 106° East  Level FlightAware Approximate
07:46PM 63.0230 11.2915 106° East  Level FlightAware Approximate
07:47PM 62.9868 11.5670 106° East  Level FlightAware Approximate
07:48PM 62.9501 11.8418 106° East  Level FlightAware Approximate
07:49PM 62.9129 12.1158 106° East  Level FlightAware Approximate
07:50PM 62.8751 12.3892 107° East  Level FlightAware Approximate
07:51PM 62.8369 12.6619 107° East  Level FlightAware Approximate
07:52PM 62.7981 12.9339 107° East  Level FlightAware Approximate
07:53PM 62.7587 13.2051 107° East  Level FlightAware Approximate
07:54PM 62.7189 13.4757 108° East  Level FlightAware Approximate
07:55PM 62.6785 13.7455 108° East  Level FlightAware Approximate
07:56PM 62.6376 14.0145 108° East  Level FlightAware Approximate
07:57PM 62.5962 14.2828 108° East  Level FlightAware Approximate
07:58PM 62.5543 14.5504 109° East  Level FlightAware Approximate
07:59PM 62.5119 14.8172 109° East  Level FlightAware Approximate
08:00PM 62.4690 15.0832 109° East  Level FlightAware Approximate
08:00PM 61.2597 22.4090 114° Southeast 501 577 37,000  Level FlightAware ADS-B (KOJC)
08:00PM 61.2285 22.5540 114° Southeast 503 579 37,000  Level FlightAware ADS-B (KOJC)
08:01PM 61.1827 22.7643 115° Southeast 502 578 37,000  Level FlightAware ADS-B (KOJC)
08:02PM 61.1356 22.9781 115° Southeast 502 578 37,000  Level FlightAware ADS-B (KOJC)
08:03PM 61.0844 23.2084 115° Southeast 503 579 37,000  Level FlightAware ADS-B (KOJC)
08:04PM 61.0494 23.3648 115° Southeast 503 579 37,000  Level FlightAware ADS-B (KOJC)
08:04PM 61.0060 23.5566 115° Southeast 502 578 37,000  Level FlightAware ADS-B (KOJC)
08:05PM 60.9705 23.7114 115° Southeast 499 574 37,000  Level FlightAware ADS-B (KOJC)
08:06PM 60.9191 23.9351 116° Southeast 497 572 37,000  Level FlightAware ADS-B (KOJC)
08:06PM 60.8835 24.0883 116° Southeast 497 572 37,000  Level FlightAware ADS-B (KOJC)
08:07PM 60.8477 24.2415 116° Southeast 497 572 37,000  Level FlightAware ADS-B (KOJC)
08:08PM 60.8090 24.4057 116° Southeast 497 572 37,000  Level FlightAware ADS-B (KOJC)
08:08PM 60.7782 24.5354 116° Southeast 497 572 37,000  Level FlightAware ADS-B (KOJC)
08:09PM 60.7472 24.6653 116° Southeast 496 571 37,000  Level FlightAware ADS-B (KOJC)
08:10PM 60.6591 25.0301 117° Southeast 492 566 37,000  Level FlightAware ADS-B (KOJC)
08:11PM 60.6281 25.1566 117° Southeast 492 566 37,000  Level FlightAware ADS-B (KOJC)
08:11PM 60.5967 25.2843 117° Southeast 493 567 37,000  Level FlightAware ADS-B (KOJC)
08:12PM 60.5571 25.4448 117° Southeast 494 568 37,000  Level FlightAware ADS-B (KOJC)
08:12PM 60.5261 25.5700 117° Southeast 495 570 37,000  Level FlightAware ADS-B (KOJC)
08:13PM 60.4816 25.7476 117° Southeast 495 570 37,000  Level FlightAware ADS-B (KOJC)
08:14PM 60.4411 25.9080 117° Southeast 495 570 37,000  Level FlightAware ADS-B (KOJC)
08:14PM 60.4003 26.0682 117° Southeast 495 570 37,000  Level FlightAware ADS-B (KOJC)
08:15PM 60.3681 26.1939 117° Southeast 495 570 37,000  Level FlightAware ADS-B (KOJC)
08:16PM 60.3029 26.4466 118° Southeast 493 567 37,000  Level FlightAware ADS-B (KOJC)
08:17PM 60.2110 26.7983 117° Southeast 495 570 37,000  Level FlightAware ADS-B (KOJC)
08:18PM 60.1838 26.9181 112° Southeast 493 567 37,000  Level FlightAware ADS-B (KOJC)
08:19PM 60.1394 27.2759 101° East 486 559 37,000  Level FlightAware ADS-B (KOJC)
08:20PM 60.1181 27.4904 101° East 484 557 37,000  Level FlightAware ADS-B (KOJC)
08:20PM 60.1046 27.6238 102° East 483 556 37,000  Level FlightAware ADS-B (KOJC)
08:21PM 60.0803 27.8615 102° East 484 557 37,000  Level FlightAware ADS-B (KOJC)
08:24PM 59.9229 28.3086 125° Southeast  Level Estimated
08:25PM 59.8475 28.5200 125° Southeast  Level Estimated
08:26PM 59.7717 28.7304 126° Southeast  Level Estimated
08:27PM 59.6956 28.9399 126° Southeast  Level Estimated
08:28PM 59.6191 29.1484 126° Southeast  Level Estimated
08:29PM 59.5423 29.3560 126° Southeast  Level Estimated
08:30PM 59.4652 29.5626 126° Southeast  Level Estimated
08:31PM 59.3878 29.7683 126° Southeast  Level Estimated
08:32PM 59.3100 29.9731 127° Southeast  Level Estimated
08:33PM 59.2319 30.1769 127° Southeast  Level Estimated
08:34PM 59.1535 30.3798 127° Southeast  Level Estimated
08:35PM 59.0748 30.5817 127° Southeast  Level Estimated
08:36PM 58.9958 30.7827 127° Southeast  Level Estimated
08:37PM 58.9165 30.9828 127° Southeast  Level Estimated
08:38PM 58.8368 31.1820 128° Southeast  Level Estimated
08:39PM 58.7569 31.3803 128° Southeast  Level Estimated
08:40PM 58.6766 31.5777 128° Southeast  Level Estimated
08:41PM 58.5961 31.7741 128° Southeast  Level Estimated
08:42PM 58.5153 31.9697 128° Southeast  Level Estimated
08:43PM 58.4341 32.1643 128° Southeast  Level Estimated
08:44PM 58.3527 32.3581 129° Southeast  Level Estimated
08:45PM 58.2709 32.5509 129° Southeast  Level Estimated
08:46PM 58.1889 32.7429 129° Southeast  Level Estimated
08:47PM 58.1066 32.9339 129° Southeast  Level Estimated
08:48PM 58.0240 33.1241 129° Southeast  Level Estimated
08:49PM 57.9412 33.3135 129° Southeast  Level Estimated
08:50PM 57.8580 33.5019 130° Southeast  Level Estimated
08:51PM 57.7746 33.6895 130° Southeast  Level Estimated
08:52PM 57.6909 33.8762 130° Southeast  Level Estimated
08:53PM 57.6069 34.0620 130° Southeast  Level Estimated
08:54PM 57.4806 34.1206 166° South  Level FlightAware Approximate
08:55PM 57.3995 34.3097 126° Southeast  Level Estimated
08:56PM 57.3181 34.4981 126° Southeast  Level Estimated
08:57PM 57.2266 34.6694 135° Southeast  Level FlightAware Approximate
08:58PM 57.1454 34.8571 127° Southeast  Level Estimated
08:59PM 57.0639 35.0439 128° Southeast  Level Estimated
09:00PM 56.9837 35.2323 128° Southeast  Level FlightAware Approximate
09:01PM 56.9015 35.4173 125° Southeast  Level Estimated
09:02PM 56.8275 35.6132 125° Southeast  Level FlightAware Approximate
09:03PM 56.7440 35.7954 128° Southeast  Level Estimated
09:04PM 56.6657 35.9849 127° Southeast  Level FlightAware Approximate
09:05PM 56.5872 36.1736 127° Southeast  Level FlightAware Approximate
09:06PM 56.5084 36.3616 127° Southeast  Level FlightAware Approximate
09:07PM 56.4211 36.5364 128° Southeast  Level Estimated
09:08PM 56.3336 36.7104 129° Southeast  Level Estimated
09:09PM 56.2626 36.9070 123° Southeast  Level FlightAware Approximate
09:10PM 56.1697 37.0709 126° Southeast  Level Estimated
09:11PM 56.0765 37.2340 126° Southeast  Level Estimated
09:12PM 55.9832 37.3963 127° Southeast  Level Estimated
09:13PM 55.9726 37.4146 127° Southeast  Level Estimated
09:14PM 55.9726 37.4146 127° Southeast  Level Estimated
09:15PM 55.9726 37.4146 127° Southeast  Level Estimated
09:16PM 55.9726 37.4146 127° Southeast  Level Estimated
09:17PM 55.9726 37.4146 127° Southeast  Level Estimated
09:18PM 55.9726 37.4146 127° Southeast  Level Estimated
09:19PM 55.9726 37.4146 127° Southeast  Level Estimated
09:20PM 55.9726 37.4146 127° Southeast  Level Estimated
09:21PM 55.9726 37.4146 127° Southeast  Level Estimated
09:22PM 55.9726 37.4146 127° Southeast  Level Estimated
09:23PM 55.9726 37.4146 127° Southeast  Level Estimated
09:24PM 55.9726 37.4146 127° Southeast  Level Estimated
09:25PM 55.9726 37.4146 127° Southeast  Level Estimated
09:26PM 55.9726 37.4146 127° Southeast  Level Estimated
09:27PM 55.9726 37.4146 127° Southeast  Level Estimated
09:28PM 55.9726 37.4146 127° Southeast  Level Estimated